メインページ
METAR-TAF:

METAR-TAF

空港 :

パリ=シャルル・ド・ゴール空港

パリチャールズ・ドゴール, フランス

緯度: 49-01N, 経度: 002-32E, 海抜: 118m

現時点の気象観測

当レポートは35分前の14:30(UTC)に作成
南/南東の風 13kt、最大24ktの突風を伴う
気温 8°C
湿度 76%
気圧 1013 hPa
視程10km以上
1,500メートル以下は雲なし、積乱雲なし

METAR: LFPG 181430Z 15013G24KT CAVOK 08/04 Q1013 NOSIG

時間: 16:05 (15:05 UTC)

予報

当レポートは4時間5分前の11:00(UTC)に作成
予報は18日の 12時(UTC)から 19日の 18時(UTC)まで有効
南/南東の風 12kt
視程10km以上
1,500メートル以下は雲なし、積乱雲なし
18日の 21時(UTC)から 18日の 23時(UTC)まで徐々に
南/南西の風 10kt
高度1200ftの千切れ雲あり
18日の 23時(UTC)から 19日の 09時(UTC)まで一時的に
高度700ftの千切れ雲あり
18日の 23時(UTC)から 19日の 02時(UTC)まで一時的に
視程: 3000m
確率 30% :
19日の 06時(UTC)から 19日の 08時(UTC)まで一時的に
視程: 3000m
高度1300ftの雲は散在している, 塔状積雲.
にわか雨
19日の 12時(UTC)から 19日の 14時(UTC)まで徐々に
高度1600ftの千切れ雲あり
確率 40% :
19日の 17時(UTC)から 19日の 18時(UTC)まで一時的に
高度1300ftの雲は散在している, 塔状積雲.

TAF: LFPG 181100Z 1812/1918 15012KT CAVOK TX09/1912Z TN07/1818Z BECMG 1821/1823 20010KT BKN012 TEMPO 1823/1909 BKN007 TEMPO 1823/1902 3000 RA PROB30 TEMPO 1906/1908 3000 SHRA SCT013TCU BECMG 1912/1914 BKN016 PROB40 TEMPO 1917/1918 SCT013TCU

4,000以上の空港の気象観測と天気予報(METAR報とTAF報)

利用可能な観測所は地図上に黄色い丸と赤い丸で示す。

丸の上にカーソルを重ねると観測所名を参照できる。

次にクリックすると気象観測と天気予報を参照できる。

マップの切り替え:黒色「×」印の緑ボタンをクリックして拡大、「-」印の緑ボタンをクリックして縮小、緑色の三角印をクリックして隣りの地図に切り替え


METAR-TAF: